sensor_id;sensor_type;location;lat;lon;timestamp;pressure;altitude;pressure_sealevel;temperature;humidity
28312;BME280;15572;48.810;9.148;2023-06-14T00:00:23;97566.25;;;14.36;58.13
28312;BME280;15572;48.810;9.148;2023-06-14T00:05:21;97569.66;;;14.19;58.34
28312;BME280;15572;48.810;9.148;2023-06-14T00:10:18;97576.41;;;14.17;58.30
28312;BME280;15572;48.810;9.148;2023-06-14T00:15:15;97574.06;;;14.20;59.34
28312;BME280;15572;48.810;9.148;2023-06-14T00:20:11;97581.25;;;14.26;59.66
28312;BME280;15572;48.810;9.148;2023-06-14T00:25:09;97585.06;;;14.25;60.15
28312;BME280;15572;48.810;9.148;2023-06-14T00:30:07;97585.16;;;14.19;60.73
28312;BME280;15572;48.810;9.148;2023-06-14T00:35:04;97586.06;;;14.01;62.71
28312;BME280;15572;48.810;9.148;2023-06-14T00:40:01;97585.72;;;13.98;61.85
28312;BME280;15572;48.810;9.148;2023-06-14T00:45:00;97573.25;;;13.90;62.58
28312;BME280;15572;48.810;9.148;2023-06-14T00:49:58;97574.56;;;13.87;63.13
28312;BME280;15572;48.810;9.148;2023-06-14T00:54:56;97573.72;;;13.57;66.12
28312;BME280;15572;48.810;9.148;2023-06-14T00:59:53;97574.63;;;13.39;65.48
28312;BME280;15572;48.810;9.148;2023-06-14T01:04:52;97578.25;;;13.33;64.62
28312;BME280;15572;48.810;9.148;2023-06-14T01:09:58;97573.41;;;13.35;64.08
28312;BME280;15572;48.810;9.148;2023-06-14T01:15:00;97581.03;;;13.45;63.67
28312;BME280;15572;48.810;9.148;2023-06-14T01:19:58;97587.78;;;13.54;63.66
28312;BME280;15572;48.810;9.148;2023-06-14T01:24:56;97588.91;;;13.65;63.67
28312;BME280;15572;48.810;9.148;2023-06-14T01:29:54;97587.50;;;13.44;64.92
28312;BME280;15572;48.810;9.148;2023-06-14T01:34:52;97580.34;;;13.31;68.19
28312;BME280;15572;48.810;9.148;2023-06-14T01:39:48;97584.66;;;13.02;69.53
28312;BME280;15572;48.810;9.148;2023-06-14T01:44:48;97588.81;;;12.87;71.09
28312;BME280;15572;48.810;9.148;2023-06-14T01:49:46;97592.31;;;12.69;73.31
28312;BME280;15572;48.810;9.148;2023-06-14T01:54:42;97585.16;;;12.75;70.82
28312;BME280;15572;48.810;9.148;2023-06-14T01:59:39;97589.44;;;12.82;69.04
28312;BME280;15572;48.810;9.148;2023-06-14T02:04:36;97590.50;;;12.63;71.47
28312;BME280;15572;48.810;9.148;2023-06-14T02:09:33;97583.72;;;12.72;71.26
28312;BME280;15572;48.810;9.148;2023-06-14T02:14:30;97595.28;;;12.86;69.71
28312;BME280;15572;48.810;9.148;2023-06-14T02:19:26;97591.44;;;12.93;69.12
28312;BME280;15572;48.810;9.148;2023-06-14T02:24:24;97594.28;;;12.80;70.17
28312;BME280;15572;48.810;9.148;2023-06-14T02:29:20;97593.38;;;12.68;70.93
28312;BME280;15572;48.810;9.148;2023-06-14T02:34:17;97592.75;;;12.66;71.10
28312;BME280;15572;48.810;9.148;2023-06-14T02:39:15;97588.63;;;12.63;70.56
28312;BME280;15572;48.810;9.148;2023-06-14T02:44:13;97592.69;;;12.54;70.71
28312;BME280;15572;48.810;9.148;2023-06-14T02:49:10;97592.69;;;12.54;70.84
28312;BME280;15572;48.810;9.148;2023-06-14T02:54:06;97585.81;;;12.52;70.45
28312;BME280;15572;48.810;9.148;2023-06-14T02:59:03;97593.34;;;12.50;71.51
28312;BME280;15572;48.810;9.148;2023-06-14T03:04:01;97599.09;;;12.35;72.54
28312;BME280;15572;48.810;9.148;2023-06-14T03:08:58;97592.97;;;12.21;74.68
28312;BME280;15572;48.810;9.148;2023-06-14T03:13:56;97599.94;;;12.11;75.17
28312;BME280;15572;48.810;9.148;2023-06-14T03:18:53;97608.50;;;12.08;74.75
28312;BME280;15572;48.810;9.148;2023-06-14T03:23:50;97605.19;;;12.06;74.60
28312;BME280;15572;48.810;9.148;2023-06-14T03:28:48;97601.81;;;12.10;74.55
28312;BME280;15572;48.810;9.148;2023-06-14T03:33:44;97620.53;;;12.18;75.58
28312;BME280;15572;48.810;9.148;2023-06-14T03:38:41;97620.75;;;12.17;74.79
28312;BME280;15572;48.810;9.148;2023-06-14T03:43:39;97620.16;;;12.15;76.54
28312;BME280;15572;48.810;9.148;2023-06-14T03:48:35;97632.31;;;12.06;77.84
28312;BME280;15572;48.810;9.148;2023-06-14T03:53:32;97634.59;;;12.09;78.06
28312;BME280;15572;48.810;9.148;2023-06-14T03:58:31;97635.91;;;12.00;79.51
28312;BME280;15572;48.810;9.148;2023-06-14T04:03:28;97646.81;;;12.18;79.39
28312;BME280;15572;48.810;9.148;2023-06-14T04:08:25;97652.63;;;12.28;77.55
28312;BME280;15572;48.810;9.148;2023-06-14T04:13:21;97649.28;;;12.26;79.53
28312;BME280;15572;48.810;9.148;2023-06-14T04:18:18;97658.06;;;12.28;78.99
28312;BME280;15572;48.810;9.148;2023-06-14T04:23:17;97663.53;;;12.46;79.03
28312;BME280;15572;48.810;9.148;2023-06-14T04:28:14;97665.97;;;12.54;79.61
28312;BME280;15572;48.810;9.148;2023-06-14T04:33:12;97670.53;;;12.60;79.29
28312;BME280;15572;48.810;9.148;2023-06-14T04:38:09;97666.31;;;12.64;79.72
28312;BME280;15572;48.810;9.148;2023-06-14T04:43:07;97659.44;;;12.87;80.37
28312;BME280;15572;48.810;9.148;2023-06-14T04:48:04;97669.25;;;13.06;79.58
28312;BME280;15572;48.810;9.148;2023-06-14T04:53:01;97689.47;;;13.35;78.17
28312;BME280;15572;48.810;9.148;2023-06-14T04:57:58;97690.72;;;13.69;76.48
28312;BME280;15572;48.810;9.148;2023-06-14T05:02:56;97699.25;;;13.90;75.13
28312;BME280;15572;48.810;9.148;2023-06-14T05:07:53;97705.25;;;14.11;73.72
28312;BME280;15572;48.810;9.148;2023-06-14T05:12:49;97704.28;;;14.35;72.56
28312;BME280;15572;48.810;9.148;2023-06-14T05:17:47;97705.56;;;14.62;70.69
28312;BME280;15572;48.810;9.148;2023-06-14T05:22:49;97711.75;;;14.93;68.14
28312;BME280;15572;48.810;9.148;2023-06-14T05:27:47;97709.25;;;14.91;67.29
28312;BME280;15572;48.810;9.148;2023-06-14T05:32:43;97710.00;;;14.98;66.79
28312;BME280;15572;48.810;9.148;2023-06-14T05:37:40;97711.41;;;15.12;66.45
28312;BME280;15572;48.810;9.148;2023-06-14T05:42:38;97715.31;;;15.40;66.46
28312;BME280;15572;48.810;9.148;2023-06-14T05:47:34;97716.16;;;15.64;62.65
28312;BME280;15572;48.810;9.148;2023-06-14T05:52:31;97707.34;;;15.73;62.93
28312;BME280;15572;48.810;9.148;2023-06-14T05:57:27;97705.44;;;15.85;61.49
28312;BME280;15572;48.810;9.148;2023-06-14T06:02:25;97706.94;;;15.93;60.72
28312;BME280;15572;48.810;9.148;2023-06-14T06:07:21;97714.38;;;16.09;60.68
28312;BME280;15572;48.810;9.148;2023-06-14T06:12:18;97716.09;;;16.27;60.78
28312;BME280;15572;48.810;9.148;2023-06-14T06:17:14;97721.69;;;16.49;59.50
28312;BME280;15572;48.810;9.148;2023-06-14T06:22:12;97726.63;;;16.63;57.36
28312;BME280;15572;48.810;9.148;2023-06-14T06:27:09;97739.38;;;16.74;55.75
28312;BME280;15572;48.810;9.148;2023-06-14T06:32:06;97727.31;;;16.87;56.17
28312;BME280;15572;48.810;9.148;2023-06-14T06:37:03;97732.72;;;16.99;56.25
28312;BME280;15572;48.810;9.148;2023-06-14T06:42:01;97736.16;;;17.11;56.20
28312;BME280;15572;48.810;9.148;2023-06-14T06:46:57;97728.47;;;17.24;57.34
28312;BME280;15572;48.810;9.148;2023-06-14T06:52:00;97736.00;;;17.34;56.49
28312;BME280;15572;48.810;9.148;2023-06-14T06:56:57;97755.06;;;17.46;51.80
28312;BME280;15572;48.810;9.148;2023-06-14T07:01:55;97755.56;;;17.59;50.94
28312;BME280;15572;48.810;9.148;2023-06-14T07:06:51;97756.75;;;17.68;51.28
28312;BME280;15572;48.810;9.148;2023-06-14T07:11:48;97764.63;;;17.82;52.10
28312;BME280;15572;48.810;9.148;2023-06-14T07:16:44;97758.97;;;17.88;50.87
28312;BME280;15572;48.810;9.148;2023-06-14T07:21:43;97766.56;;;18.03;50.00
28312;BME280;15572;48.810;9.148;2023-06-14T07:26:39;97767.81;;;18.17;49.85
28312;BME280;15572;48.810;9.148;2023-06-14T07:31:36;97778.84;;;18.22;50.02
28312;BME280;15572;48.810;9.148;2023-06-14T07:36:32;97783.69;;;18.37;50.57
28312;BME280;15572;48.810;9.148;2023-06-14T07:41:30;97778.72;;;18.56;49.41
28312;BME280;15572;48.810;9.148;2023-06-14T07:46:27;97786.09;;;18.55;49.68
28312;BME280;15572;48.810;9.148;2023-06-14T07:51:23;97791.16;;;18.63;48.84
28312;BME280;15572;48.810;9.148;2023-06-14T07:56:19;97792.03;;;18.69;49.68
28312;BME280;15572;48.810;9.148;2023-06-14T08:01:17;97792.34;;;18.72;49.56
28312;BME280;15572;48.810;9.148;2023-06-14T08:06:18;97789.41;;;18.79;49.35
28312;BME280;15572;48.810;9.148;2023-06-14T08:11:14;97784.59;;;18.91;49.87
28312;BME280;15572;48.810;9.148;2023-06-14T08:16:11;97790.75;;;19.08;49.86
28312;BME280;15572;48.810;9.148;2023-06-14T08:21:09;97795.22;;;19.14;49.55
28312;BME280;15572;48.810;9.148;2023-06-14T08:26:05;97791.25;;;19.32;48.92
28312;BME280;15572;48.810;9.148;2023-06-14T08:31:01;97796.22;;;19.35;47.94
28312;BME280;15572;48.810;9.148;2023-06-14T08:35:58;97796.25;;;19.40;48.59
28312;BME280;15572;48.810;9.148;2023-06-14T08:40:57;97803.25;;;19.53;48.66
28312;BME280;15572;48.810;9.148;2023-06-14T08:45:58;97812.34;;;19.58;48.73
28312;BME280;15572;48.810;9.148;2023-06-14T08:50:56;97809.97;;;19.72;47.66
28312;BME280;15572;48.810;9.148;2023-06-14T08:55:59;97808.47;;;19.91;47.53
28312;BME280;15572;48.810;9.148;2023-06-14T09:00:57;97808.53;;;20.06;47.48
28312;BME280;15572;48.810;9.148;2023-06-14T09:05:53;97812.69;;;20.14;47.25
28312;BME280;15572;48.810;9.148;2023-06-14T09:10:51;97804.53;;;20.24;46.70
28312;BME280;15572;48.810;9.148;2023-06-14T09:15:49;97799.69;;;20.46;45.82
28312;BME280;15572;48.810;9.148;2023-06-14T09:20:45;97803.59;;;20.55;46.14
28312;BME280;15572;48.810;9.148;2023-06-14T09:25:45;97807.81;;;20.93;46.25
28312;BME280;15572;48.810;9.148;2023-06-14T09:30:42;97807.84;;;21.14;46.00
28312;BME280;15572;48.810;9.148;2023-06-14T09:35:39;97805.69;;;21.26;44.44
28312;BME280;15572;48.810;9.148;2023-06-14T09:40:36;97809.53;;;21.25;43.93
28312;BME280;15572;48.810;9.148;2023-06-14T09:45:33;97807.88;;;21.34;44.08
28312;BME280;15572;48.810;9.148;2023-06-14T09:50:29;97808.44;;;21.46;43.02
28312;BME280;15572;48.810;9.148;2023-06-14T09:55:28;97805.91;;;21.80;41.92
28312;BME280;15572;48.810;9.148;2023-06-14T10:00:27;97802.38;;;21.95;39.88
28312;BME280;15572;48.810;9.148;2023-06-14T10:05:27;97801.25;;;21.75;39.57
28312;BME280;15572;48.810;9.148;2023-06-14T10:10:24;97801.78;;;21.98;37.98
28312;BME280;15572;48.810;9.148;2023-06-14T10:15:28;97790.09;;;22.36;37.56
28312;BME280;15572;48.810;9.148;2023-06-14T10:20:31;97793.03;;;22.55;38.53
28312;BME280;15572;48.810;9.148;2023-06-14T10:25:30;97794.50;;;22.42;37.60
28312;BME280;15572;48.810;9.148;2023-06-14T10:30:28;97786.72;;;22.49;39.65
28312;BME280;15572;48.810;9.148;2023-06-14T10:35:24;97787.06;;;22.97;39.74
28312;BME280;15572;48.810;9.148;2023-06-14T10:40:30;97773.03;;;23.27;38.90
28312;BME280;15572;48.810;9.148;2023-06-14T10:45:28;97783.44;;;23.35;37.47
28312;BME280;15572;48.810;9.148;2023-06-14T10:50:27;97788.00;;;23.21;35.88
28312;BME280;15572;48.810;9.148;2023-06-14T10:55:24;97790.31;;;23.04;37.31
28312;BME280;15572;48.810;9.148;2023-06-14T11:00:22;97790.44;;;23.62;36.63
28312;BME280;15572;48.810;9.148;2023-06-14T11:05:24;97789.03;;;24.46;35.93
28312;BME280;15572;48.810;9.148;2023-06-14T11:10:32;97790.47;;;25.04;34.36
28312;BME280;15572;48.810;9.148;2023-06-14T11:15:32;97778.50;;;25.09;31.59
28312;BME280;15572;48.810;9.148;2023-06-14T11:20:32;97781.25;;;25.28;31.12
28312;BME280;15572;48.810;9.148;2023-06-14T11:25:29;97784.34;;;24.46;31.95
28312;BME280;15572;48.810;9.148;2023-06-14T11:30:25;97798.22;;;23.60;33.46
28312;BME280;15572;48.810;9.148;2023-06-14T11:35:22;97791.47;;;23.37;33.16
28312;BME280;15572;48.810;9.148;2023-06-14T11:40:23;97782.09;;;23.96;33.02
28312;BME280;15572;48.810;9.148;2023-06-14T11:45:20;97782.19;;;25.04;32.68
28312;BME280;15572;48.810;9.148;2023-06-14T11:50:16;97787.78;;;24.33;31.86
28312;BME280;15572;48.810;9.148;2023-06-14T11:55:13;97783.88;;;24.10;32.50
28312;BME280;15572;48.810;9.148;2023-06-14T12:00:12;97777.72;;;24.42;32.15
28312;BME280;15572;48.810;9.148;2023-06-14T12:05:10;97776.84;;;25.08;31.65
28312;BME280;15572;48.810;9.148;2023-06-14T12:10:08;97775.72;;;25.79;30.52
28312;BME280;15572;48.810;9.148;2023-06-14T12:15:07;97772.09;;;26.24;29.08
28312;BME280;15572;48.810;9.148;2023-06-14T12:20:11;97769.00;;;26.12;30.20
28312;BME280;15572;48.810;9.148;2023-06-14T12:25:08;97768.31;;;25.74;30.59
28312;BME280;15572;48.810;9.148;2023-06-14T12:30:07;97774.78;;;25.51;30.75
28312;BME280;15572;48.810;9.148;2023-06-14T12:35:04;97771.84;;;25.61;30.01
28312;BME280;15572;48.810;9.148;2023-06-14T12:40:03;97773.94;;;25.69;30.04
28312;BME280;15572;48.810;9.148;2023-06-14T12:45:01;97767.94;;;26.08;29.74
28312;BME280;15572;48.810;9.148;2023-06-14T12:49:58;97774.06;;;25.91;29.82
28312;BME280;15572;48.810;9.148;2023-06-14T12:54:54;97764.28;;;26.26;29.13
28312;BME280;15572;48.810;9.148;2023-06-14T12:59:52;97762.00;;;27.19;28.17
28312;BME280;15572;48.810;9.148;2023-06-14T13:04:49;97763.00;;;26.19;29.11
28312;BME280;15572;48.810;9.148;2023-06-14T13:09:45;97777.94;;;25.44;30.64
28312;BME280;15572;48.810;9.148;2023-06-14T13:14:42;97775.28;;;25.21;31.37
28312;BME280;15572;48.810;9.148;2023-06-14T13:19:39;97776.56;;;25.61;30.95
28312;BME280;15572;48.810;9.148;2023-06-14T13:24:37;97769.00;;;26.39;29.49
28312;BME280;15572;48.810;9.148;2023-06-14T13:29:33;97769.63;;;26.50;29.19
28312;BME280;15572;48.810;9.148;2023-06-14T13:34:31;97777.78;;;26.82;29.55
28312;BME280;15572;48.810;9.148;2023-06-14T13:39:28;97767.97;;;26.63;27.71
28312;BME280;15572;48.810;9.148;2023-06-14T13:44:25;97776.63;;;26.48;28.50
28312;BME280;15572;48.810;9.148;2023-06-14T13:49:22;97765.25;;;27.35;28.28
28312;BME280;15572;48.810;9.148;2023-06-14T13:54:20;97767.44;;;27.91;28.08
28312;BME280;15572;48.810;9.148;2023-06-14T13:59:18;97757.75;;;26.86;29.03
28312;BME280;15572;48.810;9.148;2023-06-14T14:04:14;97755.63;;;26.69;29.42
28312;BME280;15572;48.810;9.148;2023-06-14T14:09:11;97757.78;;;25.90;30.25
28312;BME280;15572;48.810;9.148;2023-06-14T14:14:08;97754.81;;;25.35;30.36
28312;BME280;15572;48.810;9.148;2023-06-14T14:19:07;97752.50;;;25.24;31.24
28312;BME280;15572;48.810;9.148;2023-06-14T14:24:04;97750.16;;;24.98;32.50
28312;BME280;15572;48.810;9.148;2023-06-14T14:29:00;97749.22;;;25.22;32.12
28312;BME280;15572;48.810;9.148;2023-06-14T14:33:57;97760.69;;;25.66;30.99
28312;BME280;15572;48.810;9.148;2023-06-14T14:38:55;97762.13;;;25.45;31.58
28312;BME280;15572;48.810;9.148;2023-06-14T14:43:52;97755.44;;;25.65;31.65
28312;BME280;15572;48.810;9.148;2023-06-14T14:48:48;97760.28;;;25.73;31.03
28312;BME280;15572;48.810;9.148;2023-06-14T14:53:45;97758.25;;;25.92;31.00
28312;BME280;15572;48.810;9.148;2023-06-14T14:58:42;97763.97;;;25.68;31.02
28312;BME280;15572;48.810;9.148;2023-06-14T15:03:39;97764.38;;;25.43;31.15
28312;BME280;15572;48.810;9.148;2023-06-14T15:08:35;97755.53;;;25.08;32.35
28312;BME280;15572;48.810;9.148;2023-06-14T15:13:32;97764.75;;;24.80;32.45
28312;BME280;15572;48.810;9.148;2023-06-14T15:18:30;97755.53;;;24.90;32.57
28312;BME280;15572;48.810;9.148;2023-06-14T15:23:27;97757.00;;;25.01;32.54
28312;BME280;15572;48.810;9.148;2023-06-14T15:28:23;97750.34;;;25.02;32.61
28312;BME280;15572;48.810;9.148;2023-06-14T15:33:23;97755.69;;;24.98;32.40
28312;BME280;15572;48.810;9.148;2023-06-14T15:38:21;97750.00;;;25.08;32.29
28312;BME280;15572;48.810;9.148;2023-06-14T15:43:18;97744.97;;;24.92;32.22
28312;BME280;15572;48.810;9.148;2023-06-14T15:48:14;97753.84;;;24.70;32.84
28312;BME280;15572;48.810;9.148;2023-06-14T15:53:11;97756.78;;;24.79;32.34
28312;BME280;15572;48.810;9.148;2023-06-14T15:58:09;97758.34;;;24.66;32.91
28312;BME280;15572;48.810;9.148;2023-06-14T16:03:06;97751.00;;;24.56;32.98
28312;BME280;15572;48.810;9.148;2023-06-14T16:08:02;97759.94;;;24.48;33.37
28312;BME280;15572;48.810;9.148;2023-06-14T16:12:59;97757.56;;;24.60;33.05
28312;BME280;15572;48.810;9.148;2023-06-14T16:17:57;97745.47;;;24.75;32.01
28312;BME280;15572;48.810;9.148;2023-06-14T16:22:53;97751.53;;;24.77;32.43
28312;BME280;15572;48.810;9.148;2023-06-14T16:27:50;97757.00;;;24.82;32.11
28312;BME280;15572;48.810;9.148;2023-06-14T16:32:46;97755.88;;;24.83;32.72
28312;BME280;15572;48.810;9.148;2023-06-14T16:37:44;97763.72;;;24.76;32.36
28312;BME280;15572;48.810;9.148;2023-06-14T16:42:40;97759.22;;;24.80;32.36
28312;BME280;15572;48.810;9.148;2023-06-14T16:47:37;97770.16;;;24.71;33.19
28312;BME280;15572;48.810;9.148;2023-06-14T16:52:33;97770.03;;;24.58;33.69
28312;BME280;15572;48.810;9.148;2023-06-14T16:57:31;97773.50;;;24.68;34.05
28312;BME280;15572;48.810;9.148;2023-06-14T17:02:28;97774.25;;;24.74;33.90
28312;BME280;15572;48.810;9.148;2023-06-14T17:07:24;97784.56;;;24.68;34.24
28312;BME280;15572;48.810;9.148;2023-06-14T17:12:21;97789.47;;;24.53;34.45
28312;BME280;15572;48.810;9.148;2023-06-14T17:17:18;97791.09;;;24.35;34.27
28312;BME280;15572;48.810;9.148;2023-06-14T17:22:15;97796.81;;;24.20;34.29
28312;BME280;15572;48.810;9.148;2023-06-14T17:27:12;97799.13;;;24.08;34.62
28312;BME280;15572;48.810;9.148;2023-06-14T17:32:08;97797.81;;;24.00;35.34
28312;BME280;15572;48.810;9.148;2023-06-14T17:37:06;97803.94;;;23.97;35.53
28312;BME280;15572;48.810;9.148;2023-06-14T17:42:03;97811.19;;;23.88;35.98
28312;BME280;15572;48.810;9.148;2023-06-14T17:47:00;97813.72;;;23.84;35.72
28312;BME280;15572;48.810;9.148;2023-06-14T17:51:56;97816.47;;;23.84;35.78
28312;BME280;15572;48.810;9.148;2023-06-14T17:56:54;97820.16;;;23.75;35.54
28312;BME280;15572;48.810;9.148;2023-06-14T18:01:50;97825.16;;;23.73;35.05
28312;BME280;15572;48.810;9.148;2023-06-14T18:06:47;97824.97;;;23.64;35.81
28312;BME280;15572;48.810;9.148;2023-06-14T18:11:43;97837.06;;;23.68;36.10
28312;BME280;15572;48.810;9.148;2023-06-14T18:16:41;97837.13;;;23.63;36.48
28312;BME280;15572;48.810;9.148;2023-06-14T18:21:37;97846.38;;;23.48;36.31
28312;BME280;15572;48.810;9.148;2023-06-14T18:26:34;97836.50;;;23.32;36.96
28312;BME280;15572;48.810;9.148;2023-06-14T18:31:31;97846.25;;;23.20;37.27
28312;BME280;15572;48.810;9.148;2023-06-14T18:36:29;97847.16;;;23.05;37.42
28312;BME280;15572;48.810;9.148;2023-06-14T18:41:26;97855.78;;;22.93;37.66
28312;BME280;15572;48.810;9.148;2023-06-14T18:46:23;97848.69;;;22.77;38.01
28312;BME280;15572;48.810;9.148;2023-06-14T18:51:19;97855.34;;;22.61;38.21
28312;BME280;15572;48.810;9.148;2023-06-14T18:56:17;97857.59;;;22.44;38.96
28312;BME280;15572;48.810;9.148;2023-06-14T19:01:13;97856.84;;;22.28;39.08
28312;BME280;15572;48.810;9.148;2023-06-14T19:06:10;97859.63;;;22.13;39.49
28312;BME280;15572;48.810;9.148;2023-06-14T19:11:06;97864.91;;;21.99;39.86
28312;BME280;15572;48.810;9.148;2023-06-14T19:16:04;97878.66;;;21.89;40.06
28312;BME280;15572;48.810;9.148;2023-06-14T19:21:00;97883.34;;;21.78;40.32
28312;BME280;15572;48.810;9.148;2023-06-14T19:25:57;97886.94;;;21.69;40.37
28312;BME280;15572;48.810;9.148;2023-06-14T19:30:53;97892.72;;;21.57;40.64
28312;BME280;15572;48.810;9.148;2023-06-14T19:35:51;97895.44;;;21.42;41.13
28312;BME280;15572;48.810;9.148;2023-06-14T19:40:48;97904.78;;;21.31;41.34
28312;BME280;15572;48.810;9.148;2023-06-14T19:45:44;97916.88;;;21.25;41.37
28312;BME280;15572;48.810;9.148;2023-06-14T19:50:41;97922.31;;;21.10;41.71
28312;BME280;15572;48.810;9.148;2023-06-14T19:55:40;97926.09;;;20.93;42.13
28312;BME280;15572;48.810;9.148;2023-06-14T20:00:36;97928.53;;;20.85;42.38
28312;BME280;15572;48.810;9.148;2023-06-14T20:05:33;97936.44;;;20.66;42.96
28312;BME280;15572;48.810;9.148;2023-06-14T20:10:29;97945.69;;;20.50;43.51
28312;BME280;15572;48.810;9.148;2023-06-14T20:15:27;97945.06;;;20.38;44.07
28312;BME280;15572;48.810;9.148;2023-06-14T20:20:24;97944.97;;;20.28;44.62
28312;BME280;15572;48.810;9.148;2023-06-14T20:25:20;97959.97;;;20.15;44.95
28312;BME280;15572;48.810;9.148;2023-06-14T20:30:17;97948.88;;;20.00;45.17
28312;BME280;15572;48.810;9.148;2023-06-14T20:35:15;97958.81;;;19.74;46.79
28312;BME280;15572;48.810;9.148;2023-06-14T20:40:19;97961.34;;;19.49;48.54
28312;BME280;15572;48.810;9.148;2023-06-14T20:45:16;97951.53;;;19.09;51.01
28312;BME280;15572;48.810;9.148;2023-06-14T20:50:14;97958.03;;;18.81;51.68
28312;BME280;15572;48.810;9.148;2023-06-14T20:55:11;97956.47;;;18.64;52.21
28312;BME280;15572;48.810;9.148;2023-06-14T21:00:08;97953.72;;;18.47;53.22
28312;BME280;15572;48.810;9.148;2023-06-14T21:05:07;97961.53;;;18.22;55.34
28312;BME280;15572;48.810;9.148;2023-06-14T21:10:05;97958.84;;;18.05;56.57
28312;BME280;15572;48.810;9.148;2023-06-14T21:15:02;97954.53;;;17.92;56.48
28312;BME280;15572;48.810;9.148;2023-06-14T21:19:59;97960.75;;;17.88;56.79
28312;BME280;15572;48.810;9.148;2023-06-14T21:24:56;97959.81;;;17.65;57.13
28312;BME280;15572;48.810;9.148;2023-06-14T21:29:54;97952.59;;;17.59;56.62
28312;BME280;15572;48.810;9.148;2023-06-14T21:34:50;97954.03;;;17.62;56.87
28312;BME280;15572;48.810;9.148;2023-06-14T21:39:47;97952.97;;;17.51;57.74
28312;BME280;15572;48.810;9.148;2023-06-14T21:44:43;97950.78;;;17.37;59.54
28312;BME280;15572;48.810;9.148;2023-06-14T21:49:42;97955.97;;;17.21;60.13
28312;BME280;15572;48.810;9.148;2023-06-14T21:54:41;97962.81;;;17.07;61.31
28312;BME280;15572;48.810;9.148;2023-06-14T21:59:38;97962.63;;;16.86;63.81
28312;BME280;15572;48.810;9.148;2023-06-14T22:04:34;97964.66;;;16.78;63.46
28312;BME280;15572;48.810;9.148;2023-06-14T22:09:32;97964.34;;;16.75;63.47
28312;BME280;15572;48.810;9.148;2023-06-14T22:14:30;97965.41;;;16.74;64.84
28312;BME280;15572;48.810;9.148;2023-06-14T22:19:28;97962.19;;;16.54;65.58
28312;BME280;15572;48.810;9.148;2023-06-14T22:24:25;97972.19;;;16.36;65.43
28312;BME280;15572;48.810;9.148;2023-06-14T22:29:23;97973.13;;;16.30;65.07
28312;BME280;15572;48.810;9.148;2023-06-14T22:34:20;97974.59;;;16.21;66.61
28312;BME280;15572;48.810;9.148;2023-06-14T22:39:16;97973.63;;;16.16;67.92
28312;BME280;15572;48.810;9.148;2023-06-14T22:44:13;97977.53;;;16.08;68.43
28312;BME280;15572;48.810;9.148;2023-06-14T22:49:13;97968.53;;;15.96;69.55
28312;BME280;15572;48.810;9.148;2023-06-14T22:54:10;97967.66;;;15.84;69.42
28312;BME280;15572;48.810;9.148;2023-06-14T22:59:06;97967.88;;;15.71;69.99
28312;BME280;15572;48.810;9.148;2023-06-14T23:04:03;97967.03;;;15.58;70.31
28312;BME280;15572;48.810;9.148;2023-06-14T23:09:02;97973.25;;;15.47;71.16
28312;BME280;15572;48.810;9.148;2023-06-14T23:13:59;97973.72;;;15.44;72.55
28312;BME280;15572;48.810;9.148;2023-06-14T23:18:55;97979.16;;;15.33;73.04
28312;BME280;15572;48.810;9.148;2023-06-14T23:23:52;97973.09;;;15.31;74.08
28312;BME280;15572;48.810;9.148;2023-06-14T23:28:50;97978.03;;;15.22;74.09
28312;BME280;15572;48.810;9.148;2023-06-14T23:33:48;97980.91;;;15.27;72.70
28312;BME280;15572;48.810;9.148;2023-06-14T23:38:45;97981.00;;;15.21;72.58
28312;BME280;15572;48.810;9.148;2023-06-14T23:43:43;97978.69;;;15.06;74.87
28312;BME280;15572;48.810;9.148;2023-06-14T23:48:42;97975.81;;;15.01;75.38
28312;BME280;15572;48.810;9.148;2023-06-14T23:53:38;97974.69;;;14.90;75.46
28312;BME280;15572;48.810;9.148;2023-06-14T23:58:35;97982.25;;;14.88;76.18
